Vohburg — V2OW7 — position and weather

sailwx.info

Track history (hours):
 
Tides and Currents Weather Stations Pressure Air Temp Water Temp Dewpoint Dewpoint Depression Visibility Wind Speed Wind Dir Waves Ship Positions

Vohburg

Last reported at 2014-Nov-27 02:27 UTC. Time now 2014-Nov-27 02:54 UTC.
Position N 56°14' E 012°25'.

Length 140 m; draft 6.3 m.

Type: Ship (hazmat cat A). MMSI: 305773000.

Date/timePositionNaut miles runAvg speedWind from/ knotsBaromVisibWave heightAir tempDewpointWater temp
2014-Nov-27 02:27N 56°14' E 012°25'1617.6
2014-Nov-27 01:33N 56°01' E 012°41'1615.6
2014-Nov-27 00:34N 55°45' E 012°41'1313.2
2014-Nov-26 23:34N 55°32' E 012°42'1414.4
2014-Nov-26 22:34N 55°18' E 012°43'1616.2
2014-Nov-26 21:34N 55°15' E 013°12'1717.3
2014-Nov-26 20:33N 55°14' E 013°42'1717.2
2014-Nov-26 19:33N 55°14' E 014°12'1716.7
2014-Nov-26 18:33N 55°25' E 014°35'1717.1
2014-Nov-26 17:33N 55°27' E 015°05'371 8.1
2014-Nov-24 19:32N 59°38' E 023°33'3216.1
2014-Nov-24 17:33N 59°48' E 024°33'3015.2
2014-Nov-24 15:33N 60°11' E 025°13'2 0.3
2014-Nov-24 08:32N 60°13' E 025°11'0 0.0
2014-Nov-24 03:14N 60°13' E 025°11'5 6.8
2014-Nov-24 02:33N 60°08' E 025°12'3511.8
2014-Nov-23 23:33N 60°00' E 026°21'1413.6
2014-Nov-23 22:31N 60°00' E 026°50'2 0.1
2014-Nov-22 20:28N 59°59' E 026°52'1010.9
2014-Nov-22 19:33N 59°58' E 026°32'5712.8
2014-Nov-22 15:06N 59°46' E 024°42'712.9
2014-Nov-22 14:33N 59°44' E 024°28'1412.5
2014-Nov-22 13:24N 59°40' E 024°01'1112.6
2014-Nov-22 12:33N 59°36' E 023°41'1912.8
2014-Nov-22 11:04N 59°30' E 023°06'34112.7
2014-Nov-21 08:10N 55°37' E 015°21'812.9
2014-Nov-21 07:33N 55°33' E 015°09'1312.9
2014-Nov-21 06:33N 55°27' E 014°49'1312.6
2014-Nov-21 05:31N 55°18' E 014°32'1212.9
2014-Nov-21 04:33N 55°08' E 014°19'7113.3
2014-Nov-20 23:13N 54°38' E 012°28'812.8
2014-Nov-20 22:33N 54°32' E 012°18'1413.8
2014-Nov-20 21:33N 54°22' E 011°60'2912.9
2014-Nov-20 19:20N 54°09' E 011°16'4 0.3
2014-Nov-20 04:07N 54°08' E 011°10'  
Track history (hours):
 
Tides and Currents Weather Stations Pressure Air Temp Water Temp Dewpoint Dewpoint Depression Visibility Wind Speed Wind Dir Waves Ship Positions

Vohburg

Last reported at 2014-Nov-27 02:27 UTC. Time now 2014-Nov-27 02:54 UTC.
Position N 56°14' E 012°25'.

Length 140 m; draft 6.3 m.

Type: Ship (hazmat cat A). MMSI: 305773000.

Date/timePositionNaut miles runAvg speedWind from/ knotsBaromVisibWave heightAir tempDewpointWater temp
2014-Nov-27 02:27N 56°14' E 012°25'1617.6
2014-Nov-27 01:33N 56°01' E 012°41'1615.6
2014-Nov-27 00:34N 55°45' E 012°41'1313.2
2014-Nov-26 23:34N 55°32' E 012°42'1414.4
2014-Nov-26 22:34N 55°18' E 012°43'1616.2
2014-Nov-26 21:34N 55°15' E 013°12'1717.3
2014-Nov-26 20:33N 55°14' E 013°42'1717.2
2014-Nov-26 19:33N 55°14' E 014°12'1716.7
2014-Nov-26 18:33N 55°25' E 014°35'1717.1
2014-Nov-26 17:33N 55°27' E 015°05'371 8.1
2014-Nov-24 19:32N 59°38' E 023°33'3216.1
2014-Nov-24 17:33N 59°48' E 024°33'3015.2
2014-Nov-24 15:33N 60°11' E 025°13'2 0.3
2014-Nov-24 08:32N 60°13' E 025°11'0 0.0
2014-Nov-24 03:14N 60°13' E 025°11'5 6.8
2014-Nov-24 02:33N 60°08' E 025°12'3511.8
2014-Nov-23 23:33N 60°00' E 026°21'1413.6
2014-Nov-23 22:31N 60°00' E 026°50'2 0.1
2014-Nov-22 20:28N 59°59' E 026°52'1010.9
2014-Nov-22 19:33N 59°58' E 026°32'5712.8
2014-Nov-22 15:06N 59°46' E 024°42'712.9
2014-Nov-22 14:33N 59°44' E 024°28'1412.5
2014-Nov-22 13:24N 59°40' E 024°01'1112.6
2014-Nov-22 12:33N 59°36' E 023°41'1912.8
2014-Nov-22 11:04N 59°30' E 023°06'34112.7
2014-Nov-21 08:10N 55°37' E 015°21'812.9
2014-Nov-21 07:33N 55°33' E 015°09'1312.9
2014-Nov-21 06:33N 55°27' E 014°49'1312.6
2014-Nov-21 05:31N 55°18' E 014°32'1212.9
2014-Nov-21 04:33N 55°08' E 014°19'7113.3
2014-Nov-20 23:13N 54°38' E 012°28'812.8
2014-Nov-20 22:33N 54°32' E 012°18'1413.8
2014-Nov-20 21:33N 54°22' E 011°60'2912.9
2014-Nov-20 19:20N 54°09' E 011°16'4 0.3
2014-Nov-20 04:07N 54°08' E 011°10'  

Dump ship's entire track history